Time;durP1;ratioP1;P1;durP2;ratioP2;P2;SDS_P1;SDS_P2;PMS_P1;PMS_P2;Temp;Humidity;BMP_temperature;BMP_pressure;BME280_temperature;BME280_humidity;BME280_pressure;Samples;Min_cycle;Max_cycle;Signal;HPM_P1;HPM_P2
2022/09/17 00:00:40;;;;;;;0.98;0.50;;;14.80;68.50;;;;;;5061812;28;20028;-64
2022/09/17 00:03:07;;;;;;;2.22;0.73;;;14.80;68.90;;;;;;5081287;28;20055;-65
2022/09/17 00:05:33;;;;;;;2.60;1.63;;;14.70;69.20;;;;;;5066304;28;20036;-64
2022/09/17 00:07:58;;;;;;;1.35;0.98;;;14.60;69.60;;;;;;5074016;28;20028;-65
2022/09/17 00:10:24;;;;;;;2.75;1.02;;;14.50;69.80;;;;;;5084120;28;20684;-64
2022/09/17 00:12:50;;;;;;;1.63;0.68;;;14.50;70.50;;;;;;5069183;28;20043;-63
2022/09/17 00:15:16;;;;;;;2.15;1.20;;;14.40;70.70;;;;;;5070034;28;20115;-64
2022/09/17 00:17:42;;;;;;;4.20;1.27;;;14.40;71.30;;;;;;5071242;28;20547;-64
2022/09/17 00:20:09;;;;;;;2.75;0.80;;;14.40;71.30;;;;;;5090058;28;20028;-70
2022/09/17 00:22:36;;;;;;;2.67;1.17;;;14.40;71.30;;;;;;5067010;28;20392;-70
2022/09/17 00:25:03;;;;;;;0.73;0.60;;;14.40;71.30;;;;;;5080641;28;20056;-70
2022/09/17 00:27:28;;;;;;;3.20;0.93;;;14.40;71.50;;;;;;5085203;28;20040;-71
2022/09/17 00:29:54;;;;;;;3.95;1.33;;;14.40;71.70;;;;;;5075807;28;20032;-71
2022/09/17 00:32:20;;;;;;;4.50;1.02;;;14.40;71.70;;;;;;5087608;28;20040;-70
2022/09/17 00:34:47;;;;;;;0.35;0.30;;;14.40;71.70;;;;;;5090166;28;20387;-70
2022/09/17 00:37:13;;;;;;;1.92;0.68;;;14.40;71.70;;;;;;5084616;28;20381;-70
2022/09/17 00:39:39;;;;;;;7.03;1.23;;;14.30;71.70;;;;;;5090020;28;20016;-71
2022/09/17 00:42:09;;;;;;;0.70;0.63;;;14.30;71.70;;;;;;5087590;28;20028;-70
2022/09/17 00:44:43;;;;;;;8.13;1.60;;;14.30;71.90;;;;;;5091772;28;20032;-70
2022/09/17 00:47:43;;;;;;;2.88;1.58;;;14.30;71.90;;;;;;5080077;28;20020;-71
2022/09/17 00:50:16;;;;;;;1.75;1.25;;;14.30;72.10;;;;;;5053627;28;20040;-71
2022/09/17 00:52:55;;;;;;;1.55;1.05;;;14.20;72.30;;;;;;5079108;28;20027;-70
2022/09/17 00:55:23;;;;;;;3.33;0.98;;;14.20;72.20;;;;;;5082985;28;20108;-65
2022/09/17 00:57:52;;;;;;;4.32;1.38;;;14.10;72.50;;;;;;5079483;28;20111;-63
2022/09/17 01:00:18;;;;;;;1.38;0.60;;;14.10;72.60;;;;;;5079162;28;20032;-64
2022/09/17 01:02:44;;;;;;;1.40;0.60;;;14.10;72.70;;;;;;5105985;28;20077;-65
2022/09/17 01:05:11;;;;;;;3.17;1.20;;;14.10;72.50;;;;;;5089241;28;20332;-65
2022/09/17 01:08:12;;;;;;;8.95;1.13;;;14.10;72.50;;;;;;5088213;28;20544;-65
2022/09/17 01:10:59;;;;;;;3.60;0.90;;;14.20;72.60;;;;;;5079377;28;20138;-65
2022/09/17 01:13:37;;;;;;;2.00;0.82;;;14.10;72.70;;;;;;5081443;28;20024;-63
2022/09/17 01:16:15;;;;;;;1.58;0.60;;;14.10;72.90;;;;;;5083369;28;20035;-64
2022/09/17 01:18:48;;;;;;;4.50;0.80;;;14.10;72.80;;;;;;5086137;28;20487;-66
2022/09/17 01:21:35;;;;;;;2.28;0.65;;;14.10;72.80;;;;;;5099359;28;20031;-70
2022/09/17 01:24:36;;;;;;;1.08;0.95;;;14.10;72.70;;;;;;5078418;28;20040;-69
2022/09/17 01:27:08;;;;;;;3.22;0.80;;;14.10;72.80;;;;;;5073063;28;20047;-63
2022/09/17 01:29:52;;;;;;;4.75;0.80;;;14.10;73.00;;;;;;5094552;28;20032;-64
2022/09/17 01:32:24;;;;;;;5.32;1.45;;;14.10;73.20;;;;;;5083209;28;20090;-63
2022/09/17 01:35:02;;;;;;;1.50;0.90;;;14.10;73.30;;;;;;5082960;28;20446;-64
2022/09/17 01:37:28;;;;;;;0.47;0.30;;;14.00;73.70;;;;;;5087968;28;20034;-64
2022/09/17 01:40:04;;;;;;;2.47;0.88;;;13.90;74.00;;;;;;5090042;28;20675;-70
2022/09/17 01:43:00;;;;;;;2.70;0.82;;;13.90;74.10;;;;;;5078214;28;20030;-70
2022/09/17 01:45:35;;;;;;;2.40;0.90;;;13.90;74.30;;;;;;5085913;28;20089;-64
2022/09/17 01:48:20;;;;;;;2.65;1.23;;;13.90;74.60;;;;;;5075356;28;20020;-70
2022/09/17 01:51:10;;;;;;;2.33;1.00;;;14.00;74.60;;;;;;5072016;28;20017;-64
2022/09/17 01:53:43;;;;;;;0.45;0.45;;;14.00;74.40;;;;;;5088277;28;20033;-65
2022/09/17 01:56:13;;;;;;;3.65;1.10;;;13.90;74.60;;;;;;5083681;28;20025;-65
2022/09/17 01:58:47;;;;;;;1.65;0.55;;;13.90;74.80;;;;;;5086558;28;20032;-65
2022/09/17 02:01:16;;;;;;;0.82;0.63;;;13.90;74.90;;;;;;5083527;28;20059;-70
2022/09/17 02:03:58;;;;;;;0.75;0.50;;;13.90;75.00;;;;;;5071887;28;20127;-70
2022/09/17 02:06:29;;;;;;;2.53;0.90;;;13.80;74.90;;;;;;5079219;28;20042;-70
2022/09/17 02:09:12;;;;;;;1.58;0.90;;;13.80;75.10;;;;;;5077413;28;20040;-70
2022/09/17 02:11:41;;;;;;;1.95;1.10;;;13.80;75.30;;;;;;5076464;28;20495;-70
2022/09/17 02:14:17;;;;;;;1.17;0.60;;;13.70;75.40;;;;;;5082839;28;20451;-70
2022/09/17 02:16:54;;;;;;;12.20;1.23;;;13.70;75.30;;;;;;5073563;28;20040;-70
2022/09/17 02:19:24;;;;;;;1.45;0.70;;;13.70;75.30;;;;;;5081614;28;20038;-70
2022/09/17 02:22:10;;;;;;;2.50;0.75;;;13.70;75.20;;;;;;5103279;28;20027;-70
2022/09/17 02:24:51;;;;;;;2.20;1.08;;;13.80;75.20;;;;;;5086539;28;20019;-70
2022/09/17 02:27:28;;;;;;;1.88;0.43;;;13.80;75.00;;;;;;5089259;28;20039;-70
2022/09/17 02:29:54;;;;;;;0.43;0.43;;;13.80;75.00;;;;;;5073736;28;20022;-64
2022/09/17 02:32:19;;;;;;;4.13;0.95;;;13.80;75.00;;;;;;5084370;28;20109;-64
2022/09/17 02:34:46;;;;;;;2.60;0.80;;;13.90;75.00;;;;;;5086429;28;20028;-64
2022/09/17 02:37:12;;;;;;;2.90;1.08;;;13.80;74.90;;;;;;5081676;28;20036;-64
2022/09/17 02:39:38;;;;;;;2.60;0.95;;;13.90;74.90;;;;;;5089816;28;20031;-64
2022/09/17 02:42:47;;;;;;;3.47;1.30;;;13.80;74.90;;;;;;5071377;28;20111;-64
2022/09/17 02:45:35;;;;;;;3.13;1.10;;;13.90;74.80;;;;;;5030717;28;20040;-64
2022/09/17 02:48:40;;;;;;;7.22;0.98;;;13.80;75.10;;;;;;5076628;28;20530;-64
2022/09/17 02:51:35;;;;;;;1.90;0.98;;;13.90;75.10;;;;;;5071682;28;20048;-70
2022/09/17 02:54:24;;;;;;;3.30;0.80;;;13.90;75.10;;;;;;5079970;28;20110;-70
2022/09/17 02:57:19;;;;;;;2.85;0.50;;;13.70;75.30;;;;;;5085315;28;20024;-69
2022/09/17 03:00:14;;;;;;;1.27;0.80;;;13.70;75.60;;;;;;5082777;28;20020;-69
2022/09/17 03:02:46;;;;;;;1.35;0.80;;;13.70;75.60;;;;;;5081647;28;20103;-64
2022/09/17 03:05:13;;;;;;;1.05;0.70;;;13.60;75.60;;;;;;5092440;28;20040;-65
2022/09/17 03:07:39;;;;;;;1.17;0.88;;;13.50;75.90;;;;;;5087169;28;20059;-69
2022/09/17 03:10:05;;;;;;;2.95;1.35;;;13.50;75.80;;;;;;5077203;28;20024;-70
2022/09/17 03:12:31;;;;;;;3.63;1.20;;;13.50;75.80;;;;;;5076780;28;20683;-70
2022/09/17 03:14:57;;;;;;;1.00;0.65;;;13.40;75.80;;;;;;5091832;28;20028;-64
2022/09/17 03:17:23;;;;;;;5.25;0.90;;;13.40;75.90;;;;;;5074432;28;20082;-64
2022/09/17 03:19:48;;;;;;;0.90;0.52;;;13.40;75.90;;;;;;5094228;28;20386;-64
2022/09/17 03:22:14;;;;;;;2.75;0.63;;;13.40;75.90;;;;;;5074603;28;20037;-64
2022/09/17 03:24:39;;;;;;;1.42;1.05;;;13.40;75.80;;;;;;5085372;28;20494;-64
2022/09/17 03:27:05;;;;;;;2.90;0.80;;;13.40;75.80;;;;;;5082059;28;20493;-69
2022/09/17 03:29:31;;;;;;;1.63;0.75;;;13.40;75.70;;;;;;5078152;28;20174;-64
2022/09/17 03:31:56;;;;;;;2.22;0.85;;;13.40;75.60;;;;;;5083600;28;20030;-64
2022/09/17 03:34:22;;;;;;;4.70;0.88;;;13.30;75.50;;;;;;5079933;28;20071;-70
2022/09/17 03:36:48;;;;;;;1.20;0.70;;;13.30;75.50;;;;;;5088348;28;20120;-70
2022/09/17 03:39:14;;;;;;;1.65;0.50;;;13.30;75.50;;;;;;5092802;28;20032;-69
2022/09/17 03:41:40;;;;;;;2.03;0.88;;;13.30;75.40;;;;;;5074824;28;20017;-71
2022/09/17 03:44:05;;;;;;;1.80;0.88;;;13.20;75.30;;;;;;5085122;28;20025;-71
2022/09/17 03:46:31;;;;;;;2.35;0.60;;;13.20;75.30;;;;;;5092826;28;20040;-69
2022/09/17 03:48:56;;;;;;;1.55;1.08;;;13.20;75.40;;;;;;5081670;28;20025;-63
2022/09/17 03:51:22;;;;;;;5.90;1.02;;;13.10;75.40;;;;;;5068584;28;20094;-72
2022/09/17 03:53:48;;;;;;;1.35;0.40;;;13.10;75.40;;;;;;5087076;28;20025;-65
2022/09/17 03:56:14;;;;;;;1.58;0.60;;;13.10;75.40;;;;;;5069031;28;20028;-70
2022/09/17 03:58:39;;;;;;;0.65;0.30;;;13.10;75.40;;;;;;5071703;28;20025;-70
2022/09/17 04:01:05;;;;;;;2.53;0.90;;;13.10;75.60;;;;;;5080869;28;20020;-71
2022/09/17 04:03:32;;;;;;;2.22;1.10;;;13.10;75.60;;;;;;5084781;28;20040;-65
2022/09/17 04:05:57;;;;;;;2.80;0.85;;;13.20;75.70;;;;;;5085857;28;20035;-65
2022/09/17 04:08:23;;;;;;;0.93;0.73;;;13.10;75.80;;;;;;5078282;28;20034;-63
2022/09/17 04:10:50;;;;;;;2.50;0.80;;;13.20;75.70;;;;;;5084793;28;20028;-69
2022/09/17 04:13:17;;;;;;;4.32;1.20;;;13.10;75.70;;;;;;5073913;28;20028;-63
2022/09/17 04:15:44;;;;;;;1.88;0.77;;;13.10;75.50;;;;;;5079779;28;20035;-63
2022/09/17 04:18:09;;;;;;;1.90;0.73;;;13.10;75.40;;;;;;5090304;28;20094;-64
2022/09/17 04:20:35;;;;;;;0.55;0.50;;;13.10;75.50;;;;;;5087662;28;20744;-70
2022/09/17 04:23:01;;;;;;;1.27;0.47;;;13.00;75.50;;;;;;5093303;28;20108;-65
2022/09/17 04:25:26;;;;;;;2.03;0.80;;;13.00;75.50;;;;;;5074183;28;20070;-71
2022/09/17 04:27:52;;;;;;;1.77;0.73;;;13.00;75.60;;;;;;5086417;28;20120;-71
2022/09/17 04:30:18;;;;;;;2.85;0.70;;;13.00;75.70;;;;;;5091929;28;20028;-71
2022/09/17 04:32:44;;;;;;;4.22;0.88;;;12.90;75.60;;;;;;5084028;28;20020;-65
2022/09/17 04:35:11;;;;;;;3.90;0.88;;;12.90;75.70;;;;;;5085525;28;20457;-71
2022/09/17 04:37:37;;;;;;;1.00;0.63;;;12.80;75.80;;;;;;5077265;28;20017;-69
2022/09/17 04:40:03;;;;;;;2.20;0.43;;;12.60;75.90;;;;;;5075004;28;20037;-62
2022/09/17 04:42:32;;;;;;;4.30;1.00;;;12.60;75.90;;;;;;5072722;28;20027;-63
2022/09/17 04:44:58;;;;;;;1.17;0.73;;;12.60;76.00;;;;;;5074133;28;20028;-63
2022/09/17 04:47:25;;;;;;;2.33;1.13;;;12.60;76.00;;;;;;5072158;28;20058;-63
2022/09/17 04:49:50;;;;;;;2.92;0.55;;;12.60;75.90;;;;;;5082225;28;20027;-64
2022/09/17 04:52:16;;;;;;;0.70;0.57;;;12.60;75.80;;;;;;5072357;28;20032;-65
2022/09/17 04:54:42;;;;;;;1.60;0.77;;;12.60;75.70;;;;;;5081634;28;20035;-70
2022/09/17 04:57:08;;;;;;;2.10;0.50;;;12.50;75.50;;;;;;5077433;28;20375;-65
2022/09/17 04:59:33;;;;;;;0.50;0.40;;;12.50;75.60;;;;;;5083119;28;20027;-64
2022/09/17 05:01:59;;;;;;;0.75;0.55;;;12.50;75.60;;;;;;5086113;28;20027;-70
2022/09/17 05:04:24;;;;;;;2.83;0.90;;;12.50;75.50;;;;;;5083116;28;20449;-70
2022/09/17 05:06:50;;;;;;;1.02;0.68;;;12.50;75.50;;;;;;5076624;28;20025;-65
2022/09/17 05:09:16;;;;;;;1.80;0.60;;;12.50;75.50;;;;;;5083396;28;20118;-71
2022/09/17 05:11:42;;;;;;;1.88;0.98;;;12.50;75.40;;;;;;5088572;28;20078;-70
2022/09/17 05:14:08;;;;;;;1.35;0.88;;;12.50;75.30;;;;;;5083797;28;20123;-70
2022/09/17 05:16:33;;;;;;;1.00;0.63;;;12.50;75.30;;;;;;5085080;28;20024;-71
2022/09/17 05:18:59;;;;;;;1.35;0.65;;;12.50;75.30;;;;;;5080879;28;20036;-65
2022/09/17 05:21:25;;;;;;;0.82;0.60;;;12.50;75.40;;;;;;5076153;28;20093;-65
2022/09/17 05:23:51;;;;;;;4.32;1.05;;;12.50;75.40;;;;;;5087743;28;20517;-65
2022/09/17 05:26:16;;;;;;;2.28;0.73;;;12.40;75.40;;;;;;5079453;28;20033;-65
2022/09/17 05:28:42;;;;;;;0.85;0.60;;;12.40;75.50;;;;;;5082509;28;20032;-64
2022/09/17 05:31:08;;;;;;;1.48;0.70;;;12.40;75.60;;;;;;5087844;28;20028;-65
2022/09/17 05:33:33;;;;;;;2.53;0.43;;;12.40;75.60;;;;;;5091774;28;20039;-65
2022/09/17 05:35:59;;;;;;;0.35;0.35;;;12.40;75.60;;;;;;5075363;28;20154;-65
2022/09/17 05:38:25;;;;;;;1.23;0.50;;;12.30;75.70;;;;;;5081988;28;20479;-71
2022/09/17 05:40:51;;;;;;;0.47;0.40;;;12.30;75.80;;;;;;5079113;28;20024;-65
2022/09/17 05:43:17;;;;;;;2.10;0.68;;;12.30;75.80;;;;;;5085863;28;20037;-71
2022/09/17 05:45:43;;;;;;;1.70;0.57;;;12.20;75.80;;;;;;5086670;28;20066;-71
2022/09/17 05:48:12;;;;;;;3.50;0.75;;;12.20;75.90;;;;;;5074189;28;20448;-71
2022/09/17 05:50:39;;;;;;;1.70;0.73;;;12.10;76.00;;;;;;5091163;28;20030;-71
2022/09/17 05:53:06;;;;;;;1.05;0.93;;;12.00;76.10;;;;;;5080737;28;20387;-70
2022/09/17 07:45:15;;;;;;;1.85;0.98;;;13.40;79.50;;;;;;4761057;22;8212131;-69
2022/09/17 07:47:41;;;;;;;1.70;0.80;;;13.70;78.90;;;;;;5072660;28;20115;-71
2022/09/17 07:50:07;;;;;;;0.40;0.40;;;13.80;78.20;;;;;;5083307;28;20167;-70
2022/09/17 07:52:33;;;;;;;1.55;0.55;;;14.00;77.70;;;;;;5056241;28;20360;-69
2022/09/17 07:54:59;;;;;;;0.90;0.60;;;14.20;77.20;;;;;;5066023;28;20103;-70
2022/09/17 07:57:24;;;;;;;2.95;0.60;;;14.30;76.80;;;;;;5066800;28;20029;-65
2022/09/17 08:02:16;;;;;;;0.70;0.55;;;14.50;75.70;;;;;;5065296;27;1452179;-64
2022/09/17 08:04:42;;;;;;;0.60;0.50;;;14.50;76.00;;;;;;5088510;28;20040;-64
2022/09/17 08:09:35;;;;;;;1.80;0.52;;;14.70;74.90;;;;;;5040569;28;20436;-65
2022/09/17 08:12:01;;;;;;;3.80;1.00;;;14.80;74.90;;;;;;5044521;28;20069;-65
2022/09/17 08:14:26;;;;;;;1.55;0.28;;;14.80;74.70;;;;;;5050098;28;20079;-65
2022/09/17 08:16:52;;;;;;;0.40;0.40;;;14.90;74.40;;;;;;5048045;28;20119;-65
2022/09/17 08:19:18;;;;;;;1.33;0.60;;;15.00;74.10;;;;;;5033931;28;20468;-64
2022/09/17 08:21:44;;;;;;;3.03;0.50;;;15.10;73.80;;;;;;5043603;28;20037;-65
2022/09/17 08:24:09;;;;;;;1.42;0.82;;;15.10;72.60;;;;;;5046762;28;20136;-64
2022/09/17 08:26:35;;;;;;;2.83;0.80;;;15.20;72.60;;;;;;5043775;28;20743;-65
2022/09/17 08:29:01;;;;;;;1.17;0.70;;;15.20;71.80;;;;;;5041174;28;20598;-65
2022/09/17 08:31:32;;;;;;;0.65;0.50;;;15.30;71.80;;;;;;5043275;28;20037;-70
2022/09/17 08:33:58;;;;;;;0.93;0.60;;;15.40;71.50;;;;;;5043375;28;20590;-70
2022/09/17 08:36:25;;;;;;;2.25;0.77;;;15.50;71.50;;;;;;5044685;28;20483;-67
2022/09/17 08:38:55;;;;;;;0.47;0.45;;;15.70;71.60;;;;;;5043310;28;20124;-67
2022/09/17 08:41:29;;;;;;;0.63;0.30;;;15.90;70.90;;;;;;5035705;28;20072;-70
2022/09/17 08:44:05;;;;;;;1.98;0.47;;;16.00;70.20;;;;;;5040206;28;20140;-69
2022/09/17 08:46:52;;;;;;;1.65;0.98;;;16.00;68.40;;;;;;5051397;28;20029;-65
2022/09/17 08:49:40;;;;;;;0.30;0.30;;;16.10;68.00;;;;;;5044408;28;20021;-64
2022/09/17 08:52:47;;;;;;;0.68;0.55;;;16.10;68.20;;;;;;5052286;28;20950;-70
2022/09/17 08:55:50;;;;;;;2.28;0.82;;;16.10;67.10;;;;;;5042973;28;20025;-68
2022/09/17 08:58:48;;;;;;;0.65;0.45;;;16.20;66.30;;;;;;5037418;28;20111;-69
2022/09/17 09:01:30;;;;;;;2.13;0.50;;;16.40;66.00;;;;;;5043276;28;20448;-69
2022/09/17 09:04:02;;;;;;;0.68;0.40;;;16.50;64.50;;;;;;5060407;28;20086;-69
2022/09/17 09:06:30;;;;;;;;;;;16.50;63.70;;;;;;5045039;28;20060;-65
2022/09/17 09:09:04;;;;;;;1.65;0.35;;;16.60;63.20;;;;;;5042122;28;19976;-65
2022/09/17 09:11:31;;;;;;;3.72;0.75;;;16.60;61.50;;;;;;5029109;28;20031;-65
2022/09/17 09:14:20;;;;;;;0.20;0.20;;;16.60;62.00;;;;;;5044279;28;20035;-65
2022/09/17 09:16:48;;;;;;;3.08;0.52;;;16.80;62.70;;;;;;5044277;28;20026;-71
2022/09/17 09:19:25;;;;;;;2.10;0.80;;;16.90;62.30;;;;;;5039556;28;20045;-69
2022/09/17 09:22:03;;;;;;;0.70;0.45;;;17.10;61.30;;;;;;5023314;28;20127;-69
2022/09/17 09:24:52;;;;;;;0.45;0.40;;;17.20;60.00;;;;;;5027047;28;20526;-69
2022/09/17 09:27:34;;;;;;;0.82;0.50;;;17.20;59.70;;;;;;5027981;28;20048;-69
2022/09/17 09:30:10;;;;;;;0.38;0.38;;;17.20;59.00;;;;;;5024694;28;20488;-65
2022/09/17 09:32:59;;;;;;;1.30;0.73;;;17.20;59.20;;;;;;5025780;28;20396;-65
2022/09/17 09:35:31;;;;;;;1.95;0.50;;;17.30;58.10;;;;;;5029438;28;20486;-69
2022/09/17 09:38:06;;;;;;;2.50;0.82;;;17.40;58.80;;;;;;5028895;28;20045;-69
2022/09/17 09:40:42;;;;;;;0.40;0.32;;;17.50;58.30;;;;;;5029504;28;20108;-65
2022/09/17 09:43:30;;;;;;;1.75;0.50;;;17.60;58.60;;;;;;5029641;28;20031;-68
2022/09/17 09:46:17;;;;;;;1.05;0.75;;;17.80;58.20;;;;;;5034693;28;20480;-69
2022/09/17 09:49:04;;;;;;;0.70;0.40;;;17.90;57.00;;;;;;5037321;28;20028;-69
2022/09/17 09:51:57;;;;;;;1.83;0.30;;;18.10;57.30;;;;;;5031339;28;20476;-65
2022/09/17 09:54:34;;;;;;;;;;;18.20;58.80;;;;;;5031710;28;20546;-69
2022/09/17 09:57:12;;;;;;;0.25;0.22;;;17.90;60.60;;;;;;5020927;28;19909;-67
2022/09/17 09:59:40;;;;;;;0.52;0.40;;;17.20;62.10;;;;;;5032335;28;20049;-68
2022/09/17 10:02:06;;;;;;;1.10;0.38;;;16.60;64.40;;;;;;5026213;28;20025;-69
2022/09/17 10:04:32;;;;;;;0.20;0.20;;;16.20;65.70;;;;;;5035957;28;20397;-68
2022/09/17 10:07:09;;;;;;;0.28;0.17;;;15.90;67.00;;;;;;5028826;28;20064;-68
2022/09/17 10:09:38;;;;;;;0.80;0.45;;;15.70;67.70;;;;;;5034803;28;20133;-66
2022/09/17 10:12:12;;;;;;;0.20;0.20;;;15.40;68.50;;;;;;5025726;28;20068;-66
2022/09/17 10:14:43;;;;;;;0.55;0.47;;;15.40;69.50;;;;;;5030202;28;20056;-66
2022/09/17 10:17:35;;;;;;;1.85;0.30;;;15.60;69.90;;;;;;5018135;28;20029;-66
2022/09/17 10:20:01;;;;;;;0.60;0.38;;;16.00;69.70;;;;;;5028259;28;20591;-66
2022/09/17 10:22:35;;;;;;;0.63;0.40;;;16.20;70.00;;;;;;5035369;28;20024;-68
2022/09/17 10:25:04;;;;;;;0.65;0.50;;;16.50;69.80;;;;;;5039047;28;20029;-69
2022/09/17 10:27:31;;;;;;;0.73;0.20;;;16.80;69.50;;;;;;5042305;28;20030;-69
2022/09/17 10:30:14;;;;;;;0.35;0.35;;;16.80;68.80;;;;;;5027393;28;20029;-69
2022/09/17 10:32:40;;;;;;;0.65;0.30;;;16.50;68.90;;;;;;5028947;28;20064;-68
2022/09/17 10:35:15;;;;;;;1.67;0.20;;;16.30;69.50;;;;;;5015709;28;20057;-69
2022/09/17 10:37:44;;;;;;;0.98;0.85;;;16.20;69.90;;;;;;5030890;28;20553;-69
2022/09/17 10:40:18;;;;;;;0.88;0.30;;;16.20;70.40;;;;;;5030184;28;20021;-68
2022/09/17 10:42:49;;;;;;;1.15;0.52;;;16.10;69.50;;;;;;5029173;28;20038;-68
2022/09/17 10:45:26;;;;;;;0.20;0.20;;;15.40;70.00;;;;;;5030267;28;20029;-68
2022/09/17 10:47:54;;;;;;;0.75;0.50;;;14.80;69.50;;;;;;5010266;28;20038;-68
2022/09/17 10:50:29;;;;;;;0.20;0.20;;;14.30;70.60;;;;;;5010177;28;20323;-67
2022/09/17 10:53:05;;;;;;;0.40;0.40;;;14.10;71.60;;;;;;5023748;28;20022;-67
2022/09/17 10:55:57;;;;;;;1.20;0.40;;;14.00;72.20;;;;;;5029259;28;20108;-69
2022/09/17 10:58:38;;;;;;;0.20;0.20;;;13.90;72.30;;;;;;5030905;28;20507;-69
2022/09/17 11:01:47;;;;;;;0.30;0.30;;;14.00;72.60;;;;;;5043975;28;20037;-66
2022/09/17 11:04:38;;;;;;;0.20;0.20;;;14.50;72.60;;;;;;5023766;28;20025;-69
2022/09/17 11:07:24;;;;;;;1.20;0.30;;;15.00;72.00;;;;;;5040666;28;20029;-69
2022/09/17 11:09:56;;;;;;;0.35;0.35;;;15.40;71.70;;;;;;5028954;28;20112;-67
2022/09/17 11:12:53;;;;;;;2.08;0.65;;;15.80;71.70;;;;;;5028769;28;20071;-67
2022/09/17 11:15:43;;;;;;;0.80;0.30;;;16.20;71.50;;;;;;5027695;28;20033;-69
2022/09/17 11:18:24;;;;;;;1.45;0.60;;;16.50;70.60;;;;;;5029686;28;20026;-67
2022/09/17 11:21:12;;;;;;;2.53;0.60;;;16.70;70.10;;;;;;5027103;28;20116;-69
2022/09/17 11:24:08;;;;;;;0.20;0.20;;;17.00;70.20;;;;;;5029724;28;20029;-69
2022/09/17 11:26:51;;;;;;;0.45;0.22;;;17.50;69.50;;;;;;5029381;28;20038;-69
2022/09/17 11:29:20;;;;;;;1.15;0.57;;;17.70;68.80;;;;;;5031414;28;20032;-69
2022/09/17 11:32:03;;;;;;;0.63;0.30;;;17.90;68.80;;;;;;5047118;28;20381;-67
2022/09/17 11:34:44;;;;;;;0.30;0.30;;;18.20;68.60;;;;;;5032080;28;20463;-65
2022/09/17 11:37:18;;;;;;;0.30;0.30;;;18.50;67.70;;;;;;5032616;28;20032;-65
2022/09/17 11:39:54;;;;;;;2.55;0.98;;;18.60;66.20;;;;;;5026470;28;20366;-64
2022/09/17 11:42:30;;;;;;;1.55;0.70;;;18.70;66.10;;;;;;5034734;28;20388;-65
2022/09/17 11:45:12;;;;;;;1.33;0.65;;;18.80;65.80;;;;;;5028410;28;20069;-70
2022/09/17 11:48:10;;;;;;;1.80;0.80;;;19.00;66.20;;;;;;5037447;28;20041;-70
2022/09/17 11:50:42;;;;;;;1.20;0.75;;;19.20;63.90;;;;;;5027779;28;20583;-69
2022/09/17 11:53:34;;;;;;;0.85;0.68;;;19.30;62.50;;;;;;5044385;28;20033;-69
2022/09/17 11:56:35;;;;;;;1.55;0.60;;;19.30;60.00;;;;;;5020501;28;20038;-69
2022/09/17 11:59:03;;;;;;;1.65;0.85;;;19.40;60.50;;;;;;5027873;28;20065;-69
2022/09/17 12:01:43;;;;;;;0.73;0.55;;;19.60;60.60;;;;;;5040469;28;20057;-70
2022/09/17 12:04:37;;;;;;;0.80;0.80;;;19.80;60.10;;;;;;5033912;28;20550;-68
2022/09/17 12:07:26;;;;;;;0.65;0.40;;;19.60;58.60;;;;;;5025871;28;20061;-69
2022/09/17 12:10:41;;;;;;;2.80;1.35;;;19.00;58.90;;;;;;5028802;28;20041;-67
2022/09/17 12:13:28;;;;;;;9.48;1.20;;;18.40;60.30;;;;;;5021277;28;20489;-66
2022/09/17 12:16:26;;;;;;;2.47;0.30;;;17.80;62.80;;;;;;5021222;28;20109;-67
2022/09/17 12:19:00;;;;;;;1.13;0.68;;;17.20;63.70;;;;;;5027186;28;20018;-67
2022/09/17 12:21:54;;;;;;;3.67;0.60;;;16.60;64.20;;;;;;5031517;28;20120;-66
2022/09/17 12:24:28;;;;;;;0.95;0.63;;;16.30;65.10;;;;;;5005387;28;20088;-65
2022/09/17 12:27:15;;;;;;;0.50;0.40;;;16.10;66.60;;;;;;5026441;28;20396;-65
2022/09/17 12:29:56;;;;;;;0.57;0.57;;;16.40;67.10;;;;;;5026096;28;20564;-66
2022/09/17 12:32:33;;;;;;;0.65;0.57;;;16.70;67.20;;;;;;5015240;28;20029;-69
2022/09/17 12:35:17;;;;;;;2.33;1.05;;;17.20;67.30;;;;;;5022284;28;20385;-66
2022/09/17 12:38:19;;;;;;;0.80;0.70;;;17.70;65.70;;;;;;5027415;28;20128;-67
2022/09/17 12:40:57;;;;;;;1.83;0.80;;;18.30;65.30;;;;;;5029638;28;20041;-69
2022/09/17 12:43:39;;;;;;;0.88;0.52;;;18.60;64.90;;;;;;5028084;28;20108;-68
2022/09/17 12:46:26;;;;;;;1.08;0.40;;;18.70;63.10;;;;;;5036877;28;20144;-69
2022/09/17 12:49:21;;;;;;;2.58;0.40;;;18.70;61.80;;;;;;5034223;28;20036;-69
2022/09/17 12:51:59;;;;;;;0.90;0.47;;;18.60;63.30;;;;;;5024965;28;20481;-66
2022/09/17 12:54:58;;;;;;;0.25;0.25;;;18.70;62.70;;;;;;5026385;28;20026;-66
2022/09/17 12:57:46;;;;;;;1.73;0.63;;;18.70;61.60;;;;;;5038057;28;20018;-66
2022/09/17 13:00:14;;;;;;;1.70;0.45;;;18.50;60.90;;;;;;5031465;28;20419;-67
2022/09/17 13:02:58;;;;;;;0.35;0.35;;;18.30;60.70;;;;;;5036636;28;20025;-67
2022/09/17 13:05:33;;;;;;;1.33;0.32;;;18.10;60.90;;;;;;5028159;28;20022;-67
2022/09/17 13:08:21;;;;;;;0.85;0.40;;;18.10;60.90;;;;;;5024799;28;20046;-67
2022/09/17 13:10:59;;;;;;;0.82;0.30;;;18.30;61.10;;;;;;5043189;28;20534;-68
2022/09/17 13:13:50;;;;;;;3.10;1.25;;;18.50;60.40;;;;;;5012504;28;20481;-68
2022/09/17 13:16:33;;;;;;;3.10;0.43;;;18.80;59.80;;;;;;5038214;28;20032;-68
2022/09/17 13:19:24;;;;;;;1.55;0.65;;;18.80;59.00;;;;;;5051681;28;20025;-65
2022/09/17 13:22:02;;;;;;;0.40;0.40;;;18.60;59.20;;;;;;5041011;28;20068;-66
2022/09/17 13:24:30;;;;;;;0.65;0.52;;;18.70;59.60;;;;;;5029658;28;20030;-65
2022/09/17 13:26:57;;;;;;;0.40;0.40;;;18.90;59.50;;;;;;5037407;28;20029;-65
2022/09/17 13:29:42;;;;;;;0.55;0.40;;;19.10;59.50;;;;;;5028540;28;20038;-66
2022/09/17 13:32:08;;;;;;;1.35;0.20;;;19.50;58.50;;;;;;5020270;28;20431;-66
2022/09/17 13:34:35;;;;;;;1.08;0.32;;;19.60;56.60;;;;;;5036034;28;20033;-66
2022/09/17 13:37:03;;;;;;;0.30;0.30;;;19.60;56.50;;;;;;5029613;28;20021;-66
2022/09/17 13:39:52;;;;;;;1.83;0.40;;;19.60;56.20;;;;;;5030676;28;20033;-64
2022/09/17 13:42:27;;;;;;;1.05;0.52;;;19.70;56.50;;;;;;5030463;28;20037;-65
2022/09/17 13:45:04;;;;;;;0.93;0.73;;;19.80;57.10;;;;;;5017498;28;20076;-65
2022/09/17 13:47:39;;;;;;;0.50;0.50;;;19.80;56.70;;;;;;5023879;28;20038;-65
2022/09/17 13:50:11;;;;;;;0.57;0.55;;;20.00;57.20;;;;;;5027398;28;20392;-65
2022/09/17 13:52:50;;;;;;;0.25;0.25;;;20.10;54.60;;;;;;5037803;28;20083;-66
2022/09/17 13:55:49;;;;;;;1.50;1.05;;;20.10;52.90;;;;;;5035950;28;20033;-66
2022/09/17 13:58:18;;;;;;;0.57;0.50;;;20.10;52.20;;;;;;5024061;28;20041;-65
2022/09/17 14:00:53;;;;;;;0.57;0.40;;;20.20;52.70;;;;;;5036609;28;20416;-66
2022/09/17 14:03:27;;;;;;;0.50;0.50;;;20.40;52.70;;;;;;5035514;28;20507;-66
2022/09/17 14:06:17;;;;;;;1.50;0.50;;;20.60;52.20;;;;;;5030423;28;20032;-65
2022/09/17 14:08:43;;;;;;;0.40;0.40;;;20.50;52.50;;;;;;5035451;28;20052;-66
2022/09/17 14:11:31;;;;;;;0.52;0.50;;;20.00;54.00;;;;;;5029689;28;20025;-64
2022/09/17 14:14:03;;;;;;;0.65;0.65;;;19.80;54.00;;;;;;5048132;28;20392;-65
2022/09/17 14:16:39;;;;;;;1.65;0.40;;;19.50;54.60;;;;;;5033412;28;20183;-65
2022/09/17 14:19:14;;;;;;;2.83;0.77;;;19.30;54.70;;;;;;5042804;28;20033;-67
2022/09/17 14:21:39;;;;;;;1.00;0.63;;;19.40;54.90;;;;;;5025253;28;20025;-68
2022/09/17 14:26:07;;;;;;;2.47;0.77;;;19.70;53.70;;;;;;5015544;27;2082983;-67
2022/09/17 14:28:46;;;;;;;1.65;0.30;;;20.00;54.10;;;;;;5060790;28;20094;-67
2022/09/17 14:31:20;;;;;;;0.98;0.50;;;20.40;53.10;;;;;;5087222;28;20016;-68
2022/09/17 14:33:47;;;;;;;0.52;0.52;;;21.00;51.80;;;;;;5070066;28;20029;-68
2022/09/17 14:36:19;;;;;;;0.70;0.40;;;21.70;50.10;;;;;;5068361;28;20453;-69
2022/09/17 14:38:52;;;;;;;1.70;0.52;;;22.90;48.50;;;;;;5067000;28;20036;-67
2022/09/17 14:41:24;;;;;;;0.88;0.50;;;23.70;45.50;;;;;;5040324;28;20039;-66
2022/09/17 14:44:03;;;;;;;5.15;0.50;;;24.20;44.90;;;;;;5070388;28;20372;-66
2022/09/17 14:46:47;;;;;;;0.40;0.40;;;23.80;45.20;;;;;;5066795;28;20476;-68
2022/09/17 14:49:37;;;;;;;2.95;0.32;;;22.70;48.10;;;;;;5079439;28;20391;-67
2022/09/17 14:52:29;;;;;;;4.70;0.50;;;21.80;52.40;;;;;;5079418;28;20032;-70
2022/09/17 14:55:16;;;;;;;0.80;0.75;;;22.10;53.70;;;;;;5075097;28;20048;-69
2022/09/17 14:57:44;;;;;;;1.85;0.55;;;23.40;52.50;;;;;;5082013;28;20043;-67
2022/09/17 15:00:31;;;;;;;2.00;0.80;;;24.70;49.60;;;;;;5078275;28;20614;-68
2022/09/17 15:03:00;;;;;;;1.17;0.40;;;25.80;47.30;;;;;;5081822;28;20116;-67
2022/09/17 15:05:42;;;;;;;1.02;0.60;;;26.60;46.00;;;;;;5055156;28;20055;-69
2022/09/17 15:08:12;;;;;;;0.60;0.60;;;27.00;44.70;;;;;;5074690;28;20032;-67
2022/09/17 15:10:59;;;;;;;1.65;0.50;;;27.40;44.00;;;;;;5067027;28;20024;-66
2022/09/17 15:13:37;;;;;;;0.40;0.40;;;27.90;43.10;;;;;;5085748;28;20028;-68
2022/09/17 15:16:26;;;;;;;1.05;0.80;;;28.00;41.80;;;;;;5081623;28;20126;-68
2022/09/17 15:18:53;;;;;;;1.30;1.00;;;28.20;42.20;;;;;;5057671;28;20555;-68
2022/09/17 15:21:43;;;;;;;0.77;0.73;;;27.70;41.00;;;;;;5075018;28;20028;-67
2022/09/17 15:24:16;;;;;;;1.45;0.70;;;26.10;42.60;;;;;;5068346;28;20024;-66